sensor_id;sensor_type;location;lat;lon;timestamp;temperature;humidity
18597;DHT22;9428;50.950;6.912;2022-09-09T00:02:28;18.70;99.90
18597;DHT22;9428;50.950;6.912;2022-09-09T00:05:21;18.80;99.90
18597;DHT22;9428;50.950;6.912;2022-09-09T00:08:19;18.80;99.90
18597;DHT22;9428;50.950;6.912;2022-09-09T00:11:12;18.80;99.90
18597;DHT22;9428;50.950;6.912;2022-09-09T00:14:00;18.70;99.90
18597;DHT22;9428;50.950;6.912;2022-09-09T00:16:54;18.80;99.90
18597;DHT22;9428;50.950;6.912;2022-09-09T00:19:48;18.70;99.90
18597;DHT22;9428;50.950;6.912;2022-09-09T00:22:42;18.80;99.90
18597;DHT22;9428;50.950;6.912;2022-09-09T00:25:37;18.70;99.90
18597;DHT22;9428;50.950;6.912;2022-09-09T00:28:27;18.70;99.90
18597;DHT22;9428;50.950;6.912;2022-09-09T00:31:21;18.80;99.90
18597;DHT22;9428;50.950;6.912;2022-09-09T00:34:13;18.80;99.90
18597;DHT22;9428;50.950;6.912;2022-09-09T00:37:02;18.60;99.90
18597;DHT22;9428;50.950;6.912;2022-09-09T00:39:51;18.60;99.90
18597;DHT22;9428;50.950;6.912;2022-09-09T00:42:42;18.70;99.90
18597;DHT22;9428;50.950;6.912;2022-09-09T00:45:51;18.70;99.90
18597;DHT22;9428;50.950;6.912;2022-09-09T00:48:47;18.60;99.90
18597;DHT22;9428;50.950;6.912;2022-09-09T00:51:46;18.70;99.90
18597;DHT22;9428;50.950;6.912;2022-09-09T00:54:44;18.70;99.90
18597;DHT22;9428;50.950;6.912;2022-09-09T00:57:35;18.70;99.90
18597;DHT22;9428;50.950;6.912;2022-09-09T01:00:24;18.70;99.90
18597;DHT22;9428;50.950;6.912;2022-09-09T01:03:21;18.60;99.90
18597;DHT22;9428;50.950;6.912;2022-09-09T01:06:16;18.50;99.90
18597;DHT22;9428;50.950;6.912;2022-09-09T01:09:17;18.60;99.90
18597;DHT22;9428;50.950;6.912;2022-09-09T01:12:14;18.40;99.90
18597;DHT22;9428;50.950;6.912;2022-09-09T01:15:08;18.50;99.90
18597;DHT22;9428;50.950;6.912;2022-09-09T01:18:01;18.40;99.90
18597;DHT22;9428;50.950;6.912;2022-09-09T01:21:01;18.40;99.90
18597;DHT22;9428;50.950;6.912;2022-09-09T01:24:09;18.40;99.90
18597;DHT22;9428;50.950;6.912;2022-09-09T01:27:03;18.40;99.90
18597;DHT22;9428;50.950;6.912;2022-09-09T01:29:52;18.40;99.90
18597;DHT22;9428;50.950;6.912;2022-09-09T01:32:43;18.30;99.90
18597;DHT22;9428;50.950;6.912;2022-09-09T01:35:38;18.30;99.90
18597;DHT22;9428;50.950;6.912;2022-09-09T01:38:26;18.30;99.90
18597;DHT22;9428;50.950;6.912;2022-09-09T01:41:14;18.30;99.90
18597;DHT22;9428;50.950;6.912;2022-09-09T01:44:03;18.30;99.90
18597;DHT22;9428;50.950;6.912;2022-09-09T01:46:51;18.20;99.90
18597;DHT22;9428;50.950;6.912;2022-09-09T01:49:39;18.30;99.90
18597;DHT22;9428;50.950;6.912;2022-09-09T01:52:26;18.20;99.90
18597;DHT22;9428;50.950;6.912;2022-09-09T01:55:14;18.10;99.90
18597;DHT22;9428;50.950;6.912;2022-09-09T01:58:11;18.30;99.90
18597;DHT22;9428;50.950;6.912;2022-09-09T02:01:08;18.20;99.90
18597;DHT22;9428;50.950;6.912;2022-09-09T02:04:00;18.20;99.90
18597;DHT22;9428;50.950;6.912;2022-09-09T02:06:53;18.30;99.90
18597;DHT22;9428;50.950;6.912;2022-09-09T02:09:46;18.40;99.90
18597;DHT22;9428;50.950;6.912;2022-09-09T02:12:34;18.40;99.90
18597;DHT22;9428;50.950;6.912;2022-09-09T02:15:26;18.40;99.90
18597;DHT22;9428;50.950;6.912;2022-09-09T02:18:22;18.30;99.90
18597;DHT22;9428;50.950;6.912;2022-09-09T02:21:13;18.40;99.90
18597;DHT22;9428;50.950;6.912;2022-09-09T02:24:05;18.40;99.90
18597;DHT22;9428;50.950;6.912;2022-09-09T02:26:55;18.30;99.90
18597;DHT22;9428;50.950;6.912;2022-09-09T02:29:44;18.30;99.90
18597;DHT22;9428;50.950;6.912;2022-09-09T02:32:35;18.30;99.90
18597;DHT22;9428;50.950;6.912;2022-09-09T02:35:24;18.30;99.90
18597;DHT22;9428;50.950;6.912;2022-09-09T02:38:13;18.30;99.90
18597;DHT22;9428;50.950;6.912;2022-09-09T02:41:02;18.20;99.90
18597;DHT22;9428;50.950;6.912;2022-09-09T02:43:49;18.30;99.90
18597;DHT22;9428;50.950;6.912;2022-09-09T02:46:49;18.30;99.90
18597;DHT22;9428;50.950;6.912;2022-09-09T02:49:45;18.20;99.90
18597;DHT22;9428;50.950;6.912;2022-09-09T02:52:55;18.20;99.90
18597;DHT22;9428;50.950;6.912;2022-09-09T02:55:48;18.30;99.90
18597;DHT22;9428;50.950;6.912;2022-09-09T02:58:36;18.30;99.90
18597;DHT22;9428;50.950;6.912;2022-09-09T03:01:25;18.30;99.90
18597;DHT22;9428;50.950;6.912;2022-09-09T03:04:12;18.30;99.90
18597;DHT22;9428;50.950;6.912;2022-09-09T03:06:59;18.20;99.90
18597;DHT22;9428;50.950;6.912;2022-09-09T03:09:48;18.20;99.90
18597;DHT22;9428;50.950;6.912;2022-09-09T03:12:35;18.20;99.90
18597;DHT22;9428;50.950;6.912;2022-09-09T03:15:23;18.20;99.90
18597;DHT22;9428;50.950;6.912;2022-09-09T03:18:14;18.10;99.90
18597;DHT22;9428;50.950;6.912;2022-09-09T03:21:02;18.10;99.90
18597;DHT22;9428;50.950;6.912;2022-09-09T03:23:49;18.00;99.90
18597;DHT22;9428;50.950;6.912;2022-09-09T03:26:37;18.10;99.90
18597;DHT22;9428;50.950;6.912;2022-09-09T03:29:26;18.10;99.90
18597;DHT22;9428;50.950;6.912;2022-09-09T03:32:13;18.20;99.90
18597;DHT22;9428;50.950;6.912;2022-09-09T03:35:03;18.10;99.90
18597;DHT22;9428;50.950;6.912;2022-09-09T03:37:51;18.10;99.90
18597;DHT22;9428;50.950;6.912;2022-09-09T03:40:38;18.10;99.90
18597;DHT22;9428;50.950;6.912;2022-09-09T03:43:27;18.20;99.90
18597;DHT22;9428;50.950;6.912;2022-09-09T03:46:14;18.20;99.90
18597;DHT22;9428;50.950;6.912;2022-09-09T03:49:02;18.20;99.90
18597;DHT22;9428;50.950;6.912;2022-09-09T03:51:49;18.10;99.90
18597;DHT22;9428;50.950;6.912;2022-09-09T03:54:36;18.10;99.90
18597;DHT22;9428;50.950;6.912;2022-09-09T03:57:23;18.10;99.90
18597;DHT22;9428;50.950;6.912;2022-09-09T04:00:13;18.20;99.90
18597;DHT22;9428;50.950;6.912;2022-09-09T04:03:00;18.20;99.90
18597;DHT22;9428;50.950;6.912;2022-09-09T04:05:48;18.20;99.90
18597;DHT22;9428;50.950;6.912;2022-09-09T04:08:36;18.20;99.90
18597;DHT22;9428;50.950;6.912;2022-09-09T04:11:24;18.10;99.90
18597;DHT22;9428;50.950;6.912;2022-09-09T04:14:11;18.20;99.90
18597;DHT22;9428;50.950;6.912;2022-09-09T04:17:00;18.20;99.90
18597;DHT22;9428;50.950;6.912;2022-09-09T04:19:49;18.20;99.90
18597;DHT22;9428;50.950;6.912;2022-09-09T04:22:37;18.20;99.90
18597;DHT22;9428;50.950;6.912;2022-09-09T04:25:24;18.20;99.90
18597;DHT22;9428;50.950;6.912;2022-09-09T04:28:12;18.20;99.90
18597;DHT22;9428;50.950;6.912;2022-09-09T04:31:04;18.20;99.90
18597;DHT22;9428;50.950;6.912;2022-09-09T04:33:53;18.00;99.90
18597;DHT22;9428;50.950;6.912;2022-09-09T04:36:40;18.20;99.90
18597;DHT22;9428;50.950;6.912;2022-09-09T04:39:27;18.20;99.90
18597;DHT22;9428;50.950;6.912;2022-09-09T04:42:14;18.20;99.90
18597;DHT22;9428;50.950;6.912;2022-09-09T04:45:02;18.20;99.90
18597;DHT22;9428;50.950;6.912;2022-09-09T04:47:49;18.20;99.90
18597;DHT22;9428;50.950;6.912;2022-09-09T04:50:38;18.10;99.90
18597;DHT22;9428;50.950;6.912;2022-09-09T04:53:26;18.00;99.90
18597;DHT22;9428;50.950;6.912;2022-09-09T04:56:15;18.20;99.90
18597;DHT22;9428;50.950;6.912;2022-09-09T04:59:02;18.20;99.90
18597;DHT22;9428;50.950;6.912;2022-09-09T05:01:50;18.20;99.90
18597;DHT22;9428;50.950;6.912;2022-09-09T05:04:37;18.40;99.90
18597;DHT22;9428;50.950;6.912;2022-09-09T05:07:27;18.30;99.90
18597;DHT22;9428;50.950;6.912;2022-09-09T05:10:14;18.30;99.90
18597;DHT22;9428;50.950;6.912;2022-09-09T05:13:03;18.30;99.90
18597;DHT22;9428;50.950;6.912;2022-09-09T05:15:52;18.20;99.90
18597;DHT22;9428;50.950;6.912;2022-09-09T05:18:40;18.30;99.90
18597;DHT22;9428;50.950;6.912;2022-09-09T05:21:28;18.20;99.90
18597;DHT22;9428;50.950;6.912;2022-09-09T05:24:18;18.30;99.90
18597;DHT22;9428;50.950;6.912;2022-09-09T05:27:05;18.10;99.90
18597;DHT22;9428;50.950;6.912;2022-09-09T05:29:52;18.30;99.90
18597;DHT22;9428;50.950;6.912;2022-09-09T05:32:39;18.30;99.90
18597;DHT22;9428;50.950;6.912;2022-09-09T05:35:27;18.60;99.90
18597;DHT22;9428;50.950;6.912;2022-09-09T05:38:15;18.30;99.90
18597;DHT22;9428;50.950;6.912;2022-09-09T05:41:06;18.40;99.90
18597;DHT22;9428;50.950;6.912;2022-09-09T05:43:53;18.40;99.90
18597;DHT22;9428;50.950;6.912;2022-09-09T05:46:40;18.30;99.90
18597;DHT22;9428;50.950;6.912;2022-09-09T05:49:27;18.30;99.90
18597;DHT22;9428;50.950;6.912;2022-09-09T05:52:15;18.30;99.90
18597;DHT22;9428;50.950;6.912;2022-09-09T05:55:02;18.40;99.90
18597;DHT22;9428;50.950;6.912;2022-09-09T05:57:51;18.40;99.90
18597;DHT22;9428;50.950;6.912;2022-09-09T06:00:38;18.30;99.90
18597;DHT22;9428;50.950;6.912;2022-09-09T06:03:26;18.40;99.90
18597;DHT22;9428;50.950;6.912;2022-09-09T06:06:14;18.40;99.90
18597;DHT22;9428;50.950;6.912;2022-09-09T06:09:04;18.30;99.90
18597;DHT22;9428;50.950;6.912;2022-09-09T06:11:55;18.40;99.90
18597;DHT22;9428;50.950;6.912;2022-09-09T06:14:45;18.20;99.90
18597;DHT22;9428;50.950;6.912;2022-09-09T06:17:32;18.40;99.90
18597;DHT22;9428;50.950;6.912;2022-09-09T06:20:19;18.40;99.90
18597;DHT22;9428;50.950;6.912;2022-09-09T06:23:07;18.40;99.90
18597;DHT22;9428;50.950;6.912;2022-09-09T06:26:02;18.40;99.90
18597;DHT22;9428;50.950;6.912;2022-09-09T06:28:52;18.20;99.90
18597;DHT22;9428;50.950;6.912;2022-09-09T06:31:41;18.40;99.90
18597;DHT22;9428;50.950;6.912;2022-09-09T06:34:29;18.30;99.90
18597;DHT22;9428;50.950;6.912;2022-09-09T06:37:16;18.10;99.90
18597;DHT22;9428;50.950;6.912;2022-09-09T06:40:03;18.30;99.90
18597;DHT22;9428;50.950;6.912;2022-09-09T06:42:51;18.40;99.90
18597;DHT22;9428;50.950;6.912;2022-09-09T06:45:38;18.50;99.90
18597;DHT22;9428;50.950;6.912;2022-09-09T06:48:27;18.20;99.90
18597;DHT22;9428;50.950;6.912;2022-09-09T06:51:16;18.40;99.90
18597;DHT22;9428;50.950;6.912;2022-09-09T06:54:04;18.40;99.90
18597;DHT22;9428;50.950;6.912;2022-09-09T06:56:52;18.40;99.90
18597;DHT22;9428;50.950;6.912;2022-09-09T06:59:39;18.40;99.90
18597;DHT22;9428;50.950;6.912;2022-09-09T07:02:26;18.50;99.90
18597;DHT22;9428;50.950;6.912;2022-09-09T07:05:15;18.40;99.90
18597;DHT22;9428;50.950;6.912;2022-09-09T07:08:03;18.60;99.90
18597;DHT22;9428;50.950;6.912;2022-09-09T07:10:51;18.60;99.90
18597;DHT22;9428;50.950;6.912;2022-09-09T07:13:39;18.60;99.90
18597;DHT22;9428;50.950;6.912;2022-09-09T07:16:28;18.50;99.90
18597;DHT22;9428;50.950;6.912;2022-09-09T07:19:17;18.60;99.90
18597;DHT22;9428;50.950;6.912;2022-09-09T07:22:05;18.60;99.90
18597;DHT22;9428;50.950;6.912;2022-09-09T07:24:53;18.60;99.90
18597;DHT22;9428;50.950;6.912;2022-09-09T07:27:40;18.70;99.90
18597;DHT22;9428;50.950;6.912;2022-09-09T07:30:27;18.70;99.90
18597;DHT22;9428;50.950;6.912;2022-09-09T07:33:14;18.70;99.90
18597;DHT22;9428;50.950;6.912;2022-09-09T07:36:04;18.70;99.90
18597;DHT22;9428;50.950;6.912;2022-09-09T07:38:54;18.70;99.90
18597;DHT22;9428;50.950;6.912;2022-09-09T07:41:43;18.80;99.90
18597;DHT22;9428;50.950;6.912;2022-09-09T07:44:31;18.90;99.90
18597;DHT22;9428;50.950;6.912;2022-09-09T07:47:20;19.10;99.90
18597;DHT22;9428;50.950;6.912;2022-09-09T07:50:08;19.00;99.90
18597;DHT22;9428;50.950;6.912;2022-09-09T07:52:56;19.20;99.90
18597;DHT22;9428;50.950;6.912;2022-09-09T07:55:44;19.30;99.90
18597;DHT22;9428;50.950;6.912;2022-09-09T07:58:31;19.40;99.90
18597;DHT22;9428;50.950;6.912;2022-09-09T08:01:21;19.60;99.90
18597;DHT22;9428;50.950;6.912;2022-09-09T08:04:11;19.60;99.90
18597;DHT22;9428;50.950;6.912;2022-09-09T08:07:01;19.50;99.90
18597;DHT22;9428;50.950;6.912;2022-09-09T08:09:49;19.50;99.90
18597;DHT22;9428;50.950;6.912;2022-09-09T08:12:37;19.70;99.90
18597;DHT22;9428;50.950;6.912;2022-09-09T08:15:24;19.60;99.90
18597;DHT22;9428;50.950;6.912;2022-09-09T08:18:12;19.50;99.90
18597;DHT22;9428;50.950;6.912;2022-09-09T08:21:05;19.50;99.90
18597;DHT22;9428;50.950;6.912;2022-09-09T08:23:55;19.40;99.90
18597;DHT22;9428;50.950;6.912;2022-09-09T08:26:44;19.50;99.90
18597;DHT22;9428;50.950;6.912;2022-09-09T08:29:33;19.60;99.90
18597;DHT22;9428;50.950;6.912;2022-09-09T08:32:20;19.50;99.90
18597;DHT22;9428;50.950;6.912;2022-09-09T08:35:08;19.60;99.90
18597;DHT22;9428;50.950;6.912;2022-09-09T08:37:56;19.70;99.90
18597;DHT22;9428;50.950;6.912;2022-09-09T08:40:48;19.70;99.90
18597;DHT22;9428;50.950;6.912;2022-09-09T08:43:36;19.70;99.90
18597;DHT22;9428;50.950;6.912;2022-09-09T08:46:31;19.80;99.90
18597;DHT22;9428;50.950;6.912;2022-09-09T08:49:32;20.00;99.90
18597;DHT22;9428;50.950;6.912;2022-09-09T08:52:23;20.20;99.90
18597;DHT22;9428;50.950;6.912;2022-09-09T08:55:22;20.30;99.90
18597;DHT22;9428;50.950;6.912;2022-09-09T08:58:14;20.10;99.90
18597;DHT22;9428;50.950;6.912;2022-09-09T09:01:14;20.10;99.90
18597;DHT22;9428;50.950;6.912;2022-09-09T09:04:12;20.10;99.90
18597;DHT22;9428;50.950;6.912;2022-09-09T09:07:09;20.00;99.90
18597;DHT22;9428;50.950;6.912;2022-09-09T09:10:08;20.20;99.90
18597;DHT22;9428;50.950;6.912;2022-09-09T09:12:57;20.40;99.90
18597;DHT22;9428;50.950;6.912;2022-09-09T09:15:52;20.60;99.90
18597;DHT22;9428;50.950;6.912;2022-09-09T09:18:40;20.50;99.90
18597;DHT22;9428;50.950;6.912;2022-09-09T09:21:36;20.50;99.90
18597;DHT22;9428;50.950;6.912;2022-09-09T09:24:39;20.50;99.90
18597;DHT22;9428;50.950;6.912;2022-09-09T09:27:32;20.40;99.90
18597;DHT22;9428;50.950;6.912;2022-09-09T09:30:22;20.20;99.90
18597;DHT22;9428;50.950;6.912;2022-09-09T09:33:15;20.10;99.90
18597;DHT22;9428;50.950;6.912;2022-09-09T09:36:05;20.10;99.90
18597;DHT22;9428;50.950;6.912;2022-09-09T09:38:57;20.00;99.90
18597;DHT22;9428;50.950;6.912;2022-09-09T09:41:45;20.10;99.90
18597;DHT22;9428;50.950;6.912;2022-09-09T09:44:33;20.10;99.90
18597;DHT22;9428;50.950;6.912;2022-09-09T09:47:23;20.30;99.90
18597;DHT22;9428;50.950;6.912;2022-09-09T09:50:17;20.20;99.90
18597;DHT22;9428;50.950;6.912;2022-09-09T09:53:06;20.30;99.90
18597;DHT22;9428;50.950;6.912;2022-09-09T09:56:08;20.30;99.90
18597;DHT22;9428;50.950;6.912;2022-09-09T09:58:56;20.40;99.90
18597;DHT22;9428;50.950;6.912;2022-09-09T10:01:44;20.40;99.90
18597;DHT22;9428;50.950;6.912;2022-09-09T10:04:31;20.50;99.90
18597;DHT22;9428;50.950;6.912;2022-09-09T10:07:20;20.50;99.90
18597;DHT22;9428;50.950;6.912;2022-09-09T10:10:12;20.50;99.90
18597;DHT22;9428;50.950;6.912;2022-09-09T10:13:06;20.50;99.90
18597;DHT22;9428;50.950;6.912;2022-09-09T10:16:07;20.30;99.90
18597;DHT22;9428;50.950;6.912;2022-09-09T10:19:01;20.20;99.90
18597;DHT22;9428;50.950;6.912;2022-09-09T10:22:05;20.30;99.90
18597;DHT22;9428;50.950;6.912;2022-09-09T10:25:14;20.50;99.90
18597;DHT22;9428;50.950;6.912;2022-09-09T10:28:25;20.40;99.90
18597;DHT22;9428;50.950;6.912;2022-09-09T10:31:18;20.40;99.90
18597;DHT22;9428;50.950;6.912;2022-09-09T10:34:16;20.50;99.90
18597;DHT22;9428;50.950;6.912;2022-09-09T10:37:17;20.50;99.90
18597;DHT22;9428;50.950;6.912;2022-09-09T10:40:21;20.50;99.90
18597;DHT22;9428;50.950;6.912;2022-09-09T10:43:20;20.60;99.90
18597;DHT22;9428;50.950;6.912;2022-09-09T10:46:17;20.70;99.90
18597;DHT22;9428;50.950;6.912;2022-09-09T10:49:18;20.90;99.90
18597;DHT22;9428;50.950;6.912;2022-09-09T10:52:14;20.90;99.90
18597;DHT22;9428;50.950;6.912;2022-09-09T10:55:10;20.70;99.90
18597;DHT22;9428;50.950;6.912;2022-09-09T10:58:00;20.80;99.90
18597;DHT22;9428;50.950;6.912;2022-09-09T11:00:53;20.80;99.90
18597;DHT22;9428;50.950;6.912;2022-09-09T11:03:42;21.00;99.90
18597;DHT22;9428;50.950;6.912;2022-09-09T11:06:34;21.00;99.90
18597;DHT22;9428;50.950;6.912;2022-09-09T11:09:25;20.80;99.90
18597;DHT22;9428;50.950;6.912;2022-09-09T11:12:17;20.80;99.90
18597;DHT22;9428;50.950;6.912;2022-09-09T11:15:09;20.90;99.90
18597;DHT22;9428;50.950;6.912;2022-09-09T11:18:04;21.00;99.90
18597;DHT22;9428;50.950;6.912;2022-09-09T11:20:59;21.00;99.90
18597;DHT22;9428;50.950;6.912;2022-09-09T11:23:50;21.10;99.90
18597;DHT22;9428;50.950;6.912;2022-09-09T11:26:41;21.20;99.90
18597;DHT22;9428;50.950;6.912;2022-09-09T11:33:12;21.00;99.90
18597;DHT22;9428;50.950;6.912;2022-09-09T11:36:18;20.90;99.90
18597;DHT22;9428;50.950;6.912;2022-09-09T11:42:31;21.00;99.90
18597;DHT22;9428;50.950;6.912;2022-09-09T11:45:24;21.00;99.90
18597;DHT22;9428;50.950;6.912;2022-09-09T11:48:26;21.00;99.90
18597;DHT22;9428;50.950;6.912;2022-09-09T11:51:27;21.00;99.90
18597;DHT22;9428;50.950;6.912;2022-09-09T11:54:28;21.20;99.90
18597;DHT22;9428;50.950;6.912;2022-09-09T11:57:25;21.20;99.90
18597;DHT22;9428;50.950;6.912;2022-09-09T12:00:32;21.10;99.90
18597;DHT22;9428;50.950;6.912;2022-09-09T12:03:39;21.10;99.90
18597;DHT22;9428;50.950;6.912;2022-09-09T12:06:30;20.90;99.90
18597;DHT22;9428;50.950;6.912;2022-09-09T12:09:38;20.90;99.90
18597;DHT22;9428;50.950;6.912;2022-09-09T12:12:30;20.90;99.90
18597;DHT22;9428;50.950;6.912;2022-09-09T12:15:28;20.70;99.90
18597;DHT22;9428;50.950;6.912;2022-09-09T12:18:22;20.70;99.90
18597;DHT22;9428;50.950;6.912;2022-09-09T12:21:18;20.70;99.90
18597;DHT22;9428;50.950;6.912;2022-09-09T12:24:10;20.80;99.90
18597;DHT22;9428;50.950;6.912;2022-09-09T12:27:01;21.00;99.90
18597;DHT22;9428;50.950;6.912;2022-09-09T12:29:57;21.00;99.90
18597;DHT22;9428;50.950;6.912;2022-09-09T12:32:47;21.20;99.90
18597;DHT22;9428;50.950;6.912;2022-09-09T12:35:49;21.20;99.90
18597;DHT22;9428;50.950;6.912;2022-09-09T12:38:41;21.00;99.90
18597;DHT22;9428;50.950;6.912;2022-09-09T12:41:29;21.00;99.90
18597;DHT22;9428;50.950;6.912;2022-09-09T12:44:16;20.80;99.90
18597;DHT22;9428;50.950;6.912;2022-09-09T12:47:03;20.70;99.90
18597;DHT22;9428;50.950;6.912;2022-09-09T12:49:51;20.70;99.90
18597;DHT22;9428;50.950;6.912;2022-09-09T12:52:38;20.60;99.90
18597;DHT22;9428;50.950;6.912;2022-09-09T12:55:30;20.70;99.90
18597;DHT22;9428;50.950;6.912;2022-09-09T12:58:20;20.80;99.90
18597;DHT22;9428;50.950;6.912;2022-09-09T13:01:20;20.90;99.90
18597;DHT22;9428;50.950;6.912;2022-09-09T13:04:20;21.00;99.90
18597;DHT22;9428;50.950;6.912;2022-09-09T13:07:07;21.20;99.90
18597;DHT22;9428;50.950;6.912;2022-09-09T13:09:55;20.80;99.90
18597;DHT22;9428;50.950;6.912;2022-09-09T13:12:45;20.70;99.90
18597;DHT22;9428;50.950;6.912;2022-09-09T13:15:33;20.50;99.90
18597;DHT22;9428;50.950;6.912;2022-09-09T13:18:23;20.60;99.90
18597;DHT22;9428;50.950;6.912;2022-09-09T13:21:10;20.60;99.90
18597;DHT22;9428;50.950;6.912;2022-09-09T13:23:58;20.60;99.90
18597;DHT22;9428;50.950;6.912;2022-09-09T13:26:54;20.40;99.90
18597;DHT22;9428;50.950;6.912;2022-09-09T13:29:51;20.40;99.90
18597;DHT22;9428;50.950;6.912;2022-09-09T13:32:41;20.40;99.90
18597;DHT22;9428;50.950;6.912;2022-09-09T13:35:28;20.50;99.90
18597;DHT22;9428;50.950;6.912;2022-09-09T13:38:17;20.80;99.90
18597;DHT22;9428;50.950;6.912;2022-09-09T13:41:06;20.90;99.90
18597;DHT22;9428;50.950;6.912;2022-09-09T13:43:53;20.90;99.90
18597;DHT22;9428;50.950;6.912;2022-09-09T13:46:42;20.90;99.90
18597;DHT22;9428;50.950;6.912;2022-09-09T13:49:30;20.90;99.90
18597;DHT22;9428;50.950;6.912;2022-09-09T13:52:19;21.00;99.90
18597;DHT22;9428;50.950;6.912;2022-09-09T13:55:08;21.40;99.90
18597;DHT22;9428;50.950;6.912;2022-09-09T13:57:57;21.50;99.90
18597;DHT22;9428;50.950;6.912;2022-09-09T14:00:46;21.40;99.90
18597;DHT22;9428;50.950;6.912;2022-09-09T14:03:35;21.30;99.90
18597;DHT22;9428;50.950;6.912;2022-09-09T14:06:23;21.20;99.90
18597;DHT22;9428;50.950;6.912;2022-09-09T14:09:12;21.10;99.90
18597;DHT22;9428;50.950;6.912;2022-09-09T14:12:00;20.90;99.90
18597;DHT22;9428;50.950;6.912;2022-09-09T14:14:48;20.80;99.90
18597;DHT22;9428;50.950;6.912;2022-09-09T14:17:35;20.80;99.90
18597;DHT22;9428;50.950;6.912;2022-09-09T14:20:24;20.60;99.90
18597;DHT22;9428;50.950;6.912;2022-09-09T14:23:12;20.00;99.90
18597;DHT22;9428;50.950;6.912;2022-09-09T14:26:00;19.70;99.90
18597;DHT22;9428;50.950;6.912;2022-09-09T14:28:47;19.30;99.90
18597;DHT22;9428;50.950;6.912;2022-09-09T14:31:35;19.00;99.90
18597;DHT22;9428;50.950;6.912;2022-09-09T14:34:23;18.50;99.90
18597;DHT22;9428;50.950;6.912;2022-09-09T14:37:11;18.50;99.90
18597;DHT22;9428;50.950;6.912;2022-09-09T14:39:58;18.20;99.90
18597;DHT22;9428;50.950;6.912;2022-09-09T14:42:45;18.30;99.90
18597;DHT22;9428;50.950;6.912;2022-09-09T14:45:33;18.30;99.90
18597;DHT22;9428;50.950;6.912;2022-09-09T14:48:23;18.40;99.90
18597;DHT22;9428;50.950;6.912;2022-09-09T14:51:11;18.60;99.90
18597;DHT22;9428;50.950;6.912;2022-09-09T14:54:00;18.70;99.90
18597;DHT22;9428;50.950;6.912;2022-09-09T14:56:47;18.80;99.90
18597;DHT22;9428;50.950;6.912;2022-09-09T14:59:35;18.90;99.90
18597;DHT22;9428;50.950;6.912;2022-09-09T15:02:22;18.90;99.90
18597;DHT22;9428;50.950;6.912;2022-09-09T15:05:09;18.90;99.90
18597;DHT22;9428;50.950;6.912;2022-09-09T15:07:56;19.00;99.90
18597;DHT22;9428;50.950;6.912;2022-09-09T15:10:45;19.10;99.90
18597;DHT22;9428;50.950;6.912;2022-09-09T15:13:33;19.20;99.90
18597;DHT22;9428;50.950;6.912;2022-09-09T15:16:22;19.30;99.90
18597;DHT22;9428;50.950;6.912;2022-09-09T15:19:09;19.30;99.90
18597;DHT22;9428;50.950;6.912;2022-09-09T15:21:56;19.40;99.90
18597;DHT22;9428;50.950;6.912;2022-09-09T15:24:44;19.50;99.90
18597;DHT22;9428;50.950;6.912;2022-09-09T15:27:32;19.50;99.90
18597;DHT22;9428;50.950;6.912;2022-09-09T15:30:20;19.40;99.90
18597;DHT22;9428;50.950;6.912;2022-09-09T15:33:08;19.40;99.90
18597;DHT22;9428;50.950;6.912;2022-09-09T15:35:55;19.50;99.90
18597;DHT22;9428;50.950;6.912;2022-09-09T15:38:42;19.50;99.90
18597;DHT22;9428;50.950;6.912;2022-09-09T15:41:30;19.50;99.90
18597;DHT22;9428;50.950;6.912;2022-09-09T15:44:19;19.50;99.90
18597;DHT22;9428;50.950;6.912;2022-09-09T15:47:06;19.50;99.90
18597;DHT22;9428;50.950;6.912;2022-09-09T15:49:53;19.50;99.90
18597;DHT22;9428;50.950;6.912;2022-09-09T15:52:40;19.50;99.90
18597;DHT22;9428;50.950;6.912;2022-09-09T15:55:28;19.70;99.90
18597;DHT22;9428;50.950;6.912;2022-09-09T15:58:16;19.60;99.90
18597;DHT22;9428;50.950;6.912;2022-09-09T16:01:06;19.40;99.90
18597;DHT22;9428;50.950;6.912;2022-09-09T16:03:53;19.30;99.90
18597;DHT22;9428;50.950;6.912;2022-09-09T16:06:41;19.30;99.90
18597;DHT22;9428;50.950;6.912;2022-09-09T16:09:29;19.30;99.90
18597;DHT22;9428;50.950;6.912;2022-09-09T16:12:16;19.20;99.90
18597;DHT22;9428;50.950;6.912;2022-09-09T16:15:04;19.10;99.90
18597;DHT22;9428;50.950;6.912;2022-09-09T16:17:54;19.10;99.90
18597;DHT22;9428;50.950;6.912;2022-09-09T16:20:41;19.10;99.90
18597;DHT22;9428;50.950;6.912;2022-09-09T16:23:28;19.10;99.90
18597;DHT22;9428;50.950;6.912;2022-09-09T16:26:17;19.10;99.90
18597;DHT22;9428;50.950;6.912;2022-09-09T16:29:04;19.00;99.90
18597;DHT22;9428;50.950;6.912;2022-09-09T16:31:51;18.90;99.90
18597;DHT22;9428;50.950;6.912;2022-09-09T16:34:40;19.00;99.90
18597;DHT22;9428;50.950;6.912;2022-09-09T16:37:29;19.10;99.90
18597;DHT22;9428;50.950;6.912;2022-09-09T16:40:17;19.10;99.90
18597;DHT22;9428;50.950;6.912;2022-09-09T16:43:04;19.10;99.90
18597;DHT22;9428;50.950;6.912;2022-09-09T16:45:52;19.10;99.90
18597;DHT22;9428;50.950;6.912;2022-09-09T16:48:39;19.00;99.90
18597;DHT22;9428;50.950;6.912;2022-09-09T16:51:30;19.10;99.90
18597;DHT22;9428;50.950;6.912;2022-09-09T16:54:17;19.10;99.90
18597;DHT22;9428;50.950;6.912;2022-09-09T16:57:04;19.10;99.90
18597;DHT22;9428;50.950;6.912;2022-09-09T16:59:52;19.10;99.90
18597;DHT22;9428;50.950;6.912;2022-09-09T17:02:41;19.20;99.90
18597;DHT22;9428;50.950;6.912;2022-09-09T17:05:29;19.10;99.90
18597;DHT22;9428;50.950;6.912;2022-09-09T17:08:17;19.00;99.90
18597;DHT22;9428;50.950;6.912;2022-09-09T17:11:10;19.10;99.90
18597;DHT22;9428;50.950;6.912;2022-09-09T17:13:59;19.10;99.90
18597;DHT22;9428;50.950;6.912;2022-09-09T17:16:47;19.10;99.90
18597;DHT22;9428;50.950;6.912;2022-09-09T17:19:34;19.10;99.90
18597;DHT22;9428;50.950;6.912;2022-09-09T17:22:21;19.00;99.90
18597;DHT22;9428;50.950;6.912;2022-09-09T17:25:10;19.00;99.90
18597;DHT22;9428;50.950;6.912;2022-09-09T17:27:57;18.90;99.90
18597;DHT22;9428;50.950;6.912;2022-09-09T17:30:45;19.00;99.90
18597;DHT22;9428;50.950;6.912;2022-09-09T17:33:34;18.90;99.90
18597;DHT22;9428;50.950;6.912;2022-09-09T17:36:24;18.80;99.90
18597;DHT22;9428;50.950;6.912;2022-09-09T17:39:12;18.70;99.90
18597;DHT22;9428;50.950;6.912;2022-09-09T17:42:01;18.70;99.90
18597;DHT22;9428;50.950;6.912;2022-09-09T17:44:48;18.70;99.90
18597;DHT22;9428;50.950;6.912;2022-09-09T17:47:35;18.90;99.90
18597;DHT22;9428;50.950;6.912;2022-09-09T17:50:23;18.70;99.90
18597;DHT22;9428;50.950;6.912;2022-09-09T17:53:10;18.80;99.90
18597;DHT22;9428;50.950;6.912;2022-09-09T17:56:02;18.70;99.90
18597;DHT22;9428;50.950;6.912;2022-09-09T17:58:51;18.70;99.90
18597;DHT22;9428;50.950;6.912;2022-09-09T18:01:41;18.60;99.90
18597;DHT22;9428;50.950;6.912;2022-09-09T18:04:29;18.60;99.90
18597;DHT22;9428;50.950;6.912;2022-09-09T18:07:16;18.60;99.90
18597;DHT22;9428;50.950;6.912;2022-09-09T18:10:04;18.60;99.90
18597;DHT22;9428;50.950;6.912;2022-09-09T18:12:52;18.60;99.90
18597;DHT22;9428;50.950;6.912;2022-09-09T18:15:40;18.60;99.90
18597;DHT22;9428;50.950;6.912;2022-09-09T18:18:28;18.60;99.90
18597;DHT22;9428;50.950;6.912;2022-09-09T18:21:16;18.60;99.90